sensor_id;sensor_type;location;lat;lon;timestamp;P1;durP1;ratioP1;P2;durP2;ratioP2
2956;SDS011;1488;51.548;7.222;2022-10-16T00:01:45;1.20;;;0.80;;
2956;SDS011;1488;51.548;7.222;2022-10-16T00:04:12;1.07;;;0.97;;
2956;SDS011;1488;51.548;7.222;2022-10-16T00:06:41;0.80;;;0.70;;
2956;SDS011;1488;51.548;7.222;2022-10-16T00:09:07;1.63;;;0.90;;
2956;SDS011;1488;51.548;7.222;2022-10-16T00:11:35;0.90;;;0.80;;
2956;SDS011;1488;51.548;7.222;2022-10-16T00:14:04;0.80;;;0.67;;
2956;SDS011;1488;51.548;7.222;2022-10-16T00:16:33;0.90;;;0.80;;
2956;SDS011;1488;51.548;7.222;2022-10-16T00:19:01;0.80;;;0.80;;
2956;SDS011;1488;51.548;7.222;2022-10-16T00:21:28;0.97;;;0.87;;
2956;SDS011;1488;51.548;7.222;2022-10-16T00:23:59;0.80;;;0.80;;
2956;SDS011;1488;51.548;7.222;2022-10-16T00:26:28;1.00;;;0.90;;
2956;SDS011;1488;51.548;7.222;2022-10-16T00:28:57;1.87;;;0.80;;
2956;SDS011;1488;51.548;7.222;2022-10-16T00:31:24;1.10;;;0.90;;
2956;SDS011;1488;51.548;7.222;2022-10-16T00:33:51;0.90;;;0.80;;
2956;SDS011;1488;51.548;7.222;2022-10-16T00:36:19;0.80;;;0.77;;
2956;SDS011;1488;51.548;7.222;2022-10-16T00:38:49;0.87;;;0.80;;
2956;SDS011;1488;51.548;7.222;2022-10-16T00:41:19;0.80;;;0.70;;
2956;SDS011;1488;51.548;7.222;2022-10-16T00:43:47;0.80;;;0.70;;
2956;SDS011;1488;51.548;7.222;2022-10-16T00:46:17;1.00;;;0.77;;
2956;SDS011;1488;51.548;7.222;2022-10-16T00:48:47;0.80;;;0.70;;
2956;SDS011;1488;51.548;7.222;2022-10-16T00:51:19;0.80;;;0.80;;
2956;SDS011;1488;51.548;7.222;2022-10-16T00:53:51;0.90;;;0.80;;
2956;SDS011;1488;51.548;7.222;2022-10-16T00:56:19;1.00;;;0.90;;
2956;SDS011;1488;51.548;7.222;2022-10-16T00:58:46;0.80;;;0.77;;
2956;SDS011;1488;51.548;7.222;2022-10-16T01:01:13;0.80;;;0.70;;
2956;SDS011;1488;51.548;7.222;2022-10-16T01:03:40;1.00;;;0.90;;
2956;SDS011;1488;51.548;7.222;2022-10-16T01:06:14;0.80;;;0.70;;
2956;SDS011;1488;51.548;7.222;2022-10-16T01:08:51;0.90;;;0.80;;
2956;SDS011;1488;51.548;7.222;2022-10-16T01:11:27;0.97;;;0.87;;
2956;SDS011;1488;51.548;7.222;2022-10-16T01:14:02;0.80;;;0.70;;
2956;SDS011;1488;51.548;7.222;2022-10-16T01:16:37;0.80;;;0.73;;
2956;SDS011;1488;51.548;7.222;2022-10-16T01:19:09;0.80;;;0.80;;
2956;SDS011;1488;51.548;7.222;2022-10-16T01:21:40;0.80;;;0.80;;
2956;SDS011;1488;51.548;7.222;2022-10-16T01:24:12;0.90;;;0.80;;
2956;SDS011;1488;51.548;7.222;2022-10-16T01:29:34;0.80;;;0.80;;
2956;SDS011;1488;51.548;7.222;2022-10-16T01:32:09;0.80;;;0.70;;
2956;SDS011;1488;51.548;7.222;2022-10-16T01:34:41;0.90;;;0.80;;
2956;SDS011;1488;51.548;7.222;2022-10-16T01:37:14;0.87;;;0.80;;
2956;SDS011;1488;51.548;7.222;2022-10-16T01:39:45;1.03;;;0.70;;
2956;SDS011;1488;51.548;7.222;2022-10-16T01:42:16;0.90;;;0.70;;
2956;SDS011;1488;51.548;7.222;2022-10-16T01:44:48;0.80;;;0.70;;
2956;SDS011;1488;51.548;7.222;2022-10-16T01:47:17;0.97;;;0.80;;
2956;SDS011;1488;51.548;7.222;2022-10-16T01:49:47;0.97;;;0.90;;
2956;SDS011;1488;51.548;7.222;2022-10-16T01:52:15;0.80;;;0.70;;
2956;SDS011;1488;51.548;7.222;2022-10-16T01:54:47;0.80;;;0.80;;
2956;SDS011;1488;51.548;7.222;2022-10-16T01:57:17;0.80;;;0.70;;
2956;SDS011;1488;51.548;7.222;2022-10-16T01:59:47;0.90;;;0.80;;
2956;SDS011;1488;51.548;7.222;2022-10-16T02:02:19;0.80;;;0.80;;
2956;SDS011;1488;51.548;7.222;2022-10-16T02:04:49;0.80;;;0.80;;
2956;SDS011;1488;51.548;7.222;2022-10-16T02:07:20;0.80;;;0.77;;
2956;SDS011;1488;51.548;7.222;2022-10-16T02:09:48;0.80;;;0.70;;
2956;SDS011;1488;51.548;7.222;2022-10-16T02:12:16;0.80;;;0.70;;
2956;SDS011;1488;51.548;7.222;2022-10-16T02:14:49;1.30;;;0.80;;
2956;SDS011;1488;51.548;7.222;2022-10-16T02:17:17;1.10;;;0.70;;
2956;SDS011;1488;51.548;7.222;2022-10-16T02:19:44;0.80;;;0.77;;
2956;SDS011;1488;51.548;7.222;2022-10-16T02:22:15;0.87;;;0.77;;
2956;SDS011;1488;51.548;7.222;2022-10-16T02:24:49;0.80;;;0.73;;
2956;SDS011;1488;51.548;7.222;2022-10-16T02:27:22;0.90;;;0.77;;
2956;SDS011;1488;51.548;7.222;2022-10-16T02:29:55;1.07;;;0.80;;
2956;SDS011;1488;51.548;7.222;2022-10-16T02:32:27;0.80;;;0.70;;
2956;SDS011;1488;51.548;7.222;2022-10-16T02:34:57;1.00;;;0.80;;
2956;SDS011;1488;51.548;7.222;2022-10-16T02:37:26;0.80;;;0.70;;
2956;SDS011;1488;51.548;7.222;2022-10-16T02:39:54;0.77;;;0.60;;
2956;SDS011;1488;51.548;7.222;2022-10-16T02:42:28;1.10;;;0.70;;
2956;SDS011;1488;51.548;7.222;2022-10-16T02:44:55;0.90;;;0.80;;
2956;SDS011;1488;51.548;7.222;2022-10-16T02:47:22;0.80;;;0.70;;
2956;SDS011;1488;51.548;7.222;2022-10-16T02:49:49;0.80;;;0.80;;
2956;SDS011;1488;51.548;7.222;2022-10-16T02:52:16;0.80;;;0.70;;
2956;SDS011;1488;51.548;7.222;2022-10-16T02:54:43;1.03;;;0.93;;
2956;SDS011;1488;51.548;7.222;2022-10-16T02:57:09;0.80;;;0.70;;
2956;SDS011;1488;51.548;7.222;2022-10-16T02:59:38;1.70;;;0.80;;
2956;SDS011;1488;51.548;7.222;2022-10-16T03:02:04;0.80;;;0.70;;
2956;SDS011;1488;51.548;7.222;2022-10-16T03:04:31;0.80;;;0.77;;
2956;SDS011;1488;51.548;7.222;2022-10-16T03:06:58;0.80;;;0.70;;
2956;SDS011;1488;51.548;7.222;2022-10-16T03:09:25;0.90;;;0.80;;
2956;SDS011;1488;51.548;7.222;2022-10-16T03:11:52;0.80;;;0.70;;
2956;SDS011;1488;51.548;7.222;2022-10-16T03:14:19;0.80;;;0.73;;
2956;SDS011;1488;51.548;7.222;2022-10-16T03:16:47;0.80;;;0.70;;
2956;SDS011;1488;51.548;7.222;2022-10-16T03:19:15;0.80;;;0.70;;
2956;SDS011;1488;51.548;7.222;2022-10-16T03:21:42;1.10;;;0.80;;
2956;SDS011;1488;51.548;7.222;2022-10-16T03:24:09;0.80;;;0.60;;
2956;SDS011;1488;51.548;7.222;2022-10-16T03:26:36;0.80;;;0.70;;
2956;SDS011;1488;51.548;7.222;2022-10-16T03:29:03;0.83;;;0.70;;
2956;SDS011;1488;51.548;7.222;2022-10-16T03:31:30;0.80;;;0.70;;
2956;SDS011;1488;51.548;7.222;2022-10-16T03:33:58;0.80;;;0.70;;
2956;SDS011;1488;51.548;7.222;2022-10-16T03:36:25;0.80;;;0.80;;
2956;SDS011;1488;51.548;7.222;2022-10-16T03:38:52;0.90;;;0.70;;
2956;SDS011;1488;51.548;7.222;2022-10-16T03:41:19;0.80;;;0.70;;
2956;SDS011;1488;51.548;7.222;2022-10-16T03:43:46;0.80;;;0.70;;
2956;SDS011;1488;51.548;7.222;2022-10-16T03:46:12;0.80;;;0.70;;
2956;SDS011;1488;51.548;7.222;2022-10-16T03:48:39;0.90;;;0.80;;
2956;SDS011;1488;51.548;7.222;2022-10-16T03:51:07;0.80;;;0.60;;
2956;SDS011;1488;51.548;7.222;2022-10-16T03:53:34;0.73;;;0.63;;
2956;SDS011;1488;51.548;7.222;2022-10-16T03:56:01;0.80;;;0.80;;
2956;SDS011;1488;51.548;7.222;2022-10-16T03:58:28;0.83;;;0.70;;
2956;SDS011;1488;51.548;7.222;2022-10-16T04:00:54;0.73;;;0.60;;
2956;SDS011;1488;51.548;7.222;2022-10-16T04:03:21;0.80;;;0.70;;
2956;SDS011;1488;51.548;7.222;2022-10-16T04:05:48;0.80;;;0.70;;
2956;SDS011;1488;51.548;7.222;2022-10-16T04:08:16;0.80;;;0.70;;
2956;SDS011;1488;51.548;7.222;2022-10-16T04:10:43;0.80;;;0.70;;
2956;SDS011;1488;51.548;7.222;2022-10-16T04:13:10;0.80;;;0.70;;
2956;SDS011;1488;51.548;7.222;2022-10-16T04:15:37;0.90;;;0.80;;
2956;SDS011;1488;51.548;7.222;2022-10-16T04:18:05;0.93;;;0.70;;
2956;SDS011;1488;51.548;7.222;2022-10-16T04:20:32;0.80;;;0.73;;
2956;SDS011;1488;51.548;7.222;2022-10-16T04:22:59;0.70;;;0.60;;
2956;SDS011;1488;51.548;7.222;2022-10-16T04:25:28;0.80;;;0.70;;
2956;SDS011;1488;51.548;7.222;2022-10-16T04:27:55;0.77;;;0.60;;
2956;SDS011;1488;51.548;7.222;2022-10-16T04:30:22;0.90;;;0.70;;
2956;SDS011;1488;51.548;7.222;2022-10-16T04:32:49;0.80;;;0.73;;
2956;SDS011;1488;51.548;7.222;2022-10-16T04:35:17;1.33;;;0.80;;
2956;SDS011;1488;51.548;7.222;2022-10-16T04:37:44;0.80;;;0.60;;
2956;SDS011;1488;51.548;7.222;2022-10-16T04:40:11;0.80;;;0.80;;
2956;SDS011;1488;51.548;7.222;2022-10-16T04:42:40;1.00;;;0.80;;
2956;SDS011;1488;51.548;7.222;2022-10-16T04:45:08;0.80;;;0.60;;
2956;SDS011;1488;51.548;7.222;2022-10-16T04:47:35;1.10;;;0.80;;
2956;SDS011;1488;51.548;7.222;2022-10-16T04:50:02;0.80;;;0.63;;
2956;SDS011;1488;51.548;7.222;2022-10-16T04:52:29;0.80;;;0.60;;
2956;SDS011;1488;51.548;7.222;2022-10-16T04:54:56;0.80;;;0.70;;
2956;SDS011;1488;51.548;7.222;2022-10-16T04:57:26;0.90;;;0.73;;
2956;SDS011;1488;51.548;7.222;2022-10-16T04:59:54;0.83;;;0.73;;
2956;SDS011;1488;51.548;7.222;2022-10-16T05:02:21;0.80;;;0.70;;
2956;SDS011;1488;51.548;7.222;2022-10-16T05:04:48;0.80;;;0.70;;
2956;SDS011;1488;51.548;7.222;2022-10-16T05:07:15;0.70;;;0.60;;
2956;SDS011;1488;51.548;7.222;2022-10-16T05:09:41;0.83;;;0.73;;
2956;SDS011;1488;51.548;7.222;2022-10-16T05:12:08;0.80;;;0.70;;
2956;SDS011;1488;51.548;7.222;2022-10-16T05:14:35;0.80;;;0.70;;
2956;SDS011;1488;51.548;7.222;2022-10-16T05:17:03;0.80;;;0.60;;
2956;SDS011;1488;51.548;7.222;2022-10-16T05:19:30;0.73;;;0.70;;
2956;SDS011;1488;51.548;7.222;2022-10-16T05:21:57;0.80;;;0.67;;
2956;SDS011;1488;51.548;7.222;2022-10-16T05:24:24;0.80;;;0.70;;
2956;SDS011;1488;51.548;7.222;2022-10-16T05:26:51;0.80;;;0.70;;
2956;SDS011;1488;51.548;7.222;2022-10-16T05:29:17;1.03;;;0.70;;
2956;SDS011;1488;51.548;7.222;2022-10-16T05:31:44;0.80;;;0.80;;
2956;SDS011;1488;51.548;7.222;2022-10-16T05:34:12;0.80;;;0.70;;
2956;SDS011;1488;51.548;7.222;2022-10-16T05:36:39;0.80;;;0.70;;
2956;SDS011;1488;51.548;7.222;2022-10-16T05:39:06;0.80;;;0.60;;
2956;SDS011;1488;51.548;7.222;2022-10-16T05:41:33;0.80;;;0.60;;
2956;SDS011;1488;51.548;7.222;2022-10-16T05:43:59;0.80;;;0.70;;
2956;SDS011;1488;51.548;7.222;2022-10-16T05:46:29;0.80;;;0.70;;
2956;SDS011;1488;51.548;7.222;2022-10-16T05:48:56;0.90;;;0.70;;
2956;SDS011;1488;51.548;7.222;2022-10-16T05:51:24;1.33;;;0.83;;
2956;SDS011;1488;51.548;7.222;2022-10-16T05:53:51;0.80;;;0.70;;
2956;SDS011;1488;51.548;7.222;2022-10-16T05:56:18;0.80;;;0.60;;
2956;SDS011;1488;51.548;7.222;2022-10-16T05:58:45;0.80;;;0.60;;
2956;SDS011;1488;51.548;7.222;2022-10-16T06:01:12;0.70;;;0.60;;
2956;SDS011;1488;51.548;7.222;2022-10-16T06:03:40;0.80;;;0.60;;
2956;SDS011;1488;51.548;7.222;2022-10-16T06:06:08;0.80;;;0.70;;
2956;SDS011;1488;51.548;7.222;2022-10-16T06:08:37;0.77;;;0.70;;
2956;SDS011;1488;51.548;7.222;2022-10-16T06:11:05;0.80;;;0.70;;
2956;SDS011;1488;51.548;7.222;2022-10-16T06:13:33;0.80;;;0.70;;
2956;SDS011;1488;51.548;7.222;2022-10-16T06:16:00;0.80;;;0.60;;
2956;SDS011;1488;51.548;7.222;2022-10-16T06:18:28;0.80;;;0.70;;
2956;SDS011;1488;51.548;7.222;2022-10-16T06:20:56;0.80;;;0.60;;
2956;SDS011;1488;51.548;7.222;2022-10-16T06:23:23;0.70;;;0.60;;
2956;SDS011;1488;51.548;7.222;2022-10-16T06:25:52;0.80;;;0.70;;
2956;SDS011;1488;51.548;7.222;2022-10-16T06:28:18;0.87;;;0.70;;
2956;SDS011;1488;51.548;7.222;2022-10-16T06:30:45;0.80;;;0.67;;
2956;SDS011;1488;51.548;7.222;2022-10-16T06:33:12;0.80;;;0.70;;
2956;SDS011;1488;51.548;7.222;2022-10-16T06:35:39;0.80;;;0.70;;
2956;SDS011;1488;51.548;7.222;2022-10-16T06:38:06;0.80;;;0.70;;
2956;SDS011;1488;51.548;7.222;2022-10-16T06:40:33;0.80;;;0.70;;
2956;SDS011;1488;51.548;7.222;2022-10-16T06:43:01;0.80;;;0.70;;
2956;SDS011;1488;51.548;7.222;2022-10-16T06:45:28;0.80;;;0.60;;
2956;SDS011;1488;51.548;7.222;2022-10-16T06:47:54;0.70;;;0.70;;
2956;SDS011;1488;51.548;7.222;2022-10-16T06:50:21;0.80;;;0.70;;
2956;SDS011;1488;51.548;7.222;2022-10-16T06:52:48;0.70;;;0.60;;
2956;SDS011;1488;51.548;7.222;2022-10-16T06:55:15;0.80;;;0.60;;
2956;SDS011;1488;51.548;7.222;2022-10-16T06:57:43;0.80;;;0.60;;
2956;SDS011;1488;51.548;7.222;2022-10-16T07:00:11;0.70;;;0.60;;
2956;SDS011;1488;51.548;7.222;2022-10-16T07:02:38;0.80;;;0.70;;
2956;SDS011;1488;51.548;7.222;2022-10-16T07:05:05;0.80;;;0.60;;
2956;SDS011;1488;51.548;7.222;2022-10-16T07:07:32;0.80;;;0.60;;
2956;SDS011;1488;51.548;7.222;2022-10-16T07:09:59;1.30;;;0.67;;
2956;SDS011;1488;51.548;7.222;2022-10-16T07:12:26;0.80;;;0.60;;
2956;SDS011;1488;51.548;7.222;2022-10-16T07:14:53;0.80;;;0.63;;
2956;SDS011;1488;51.548;7.222;2022-10-16T07:17:22;0.73;;;0.60;;
2956;SDS011;1488;51.548;7.222;2022-10-16T07:19:49;0.80;;;0.60;;
2956;SDS011;1488;51.548;7.222;2022-10-16T07:22:18;1.53;;;0.67;;
2956;SDS011;1488;51.548;7.222;2022-10-16T07:24:45;0.80;;;0.70;;
2956;SDS011;1488;51.548;7.222;2022-10-16T07:27:11;1.07;;;0.93;;
2956;SDS011;1488;51.548;7.222;2022-10-16T07:29:38;0.90;;;0.70;;
2956;SDS011;1488;51.548;7.222;2022-10-16T07:32:05;0.97;;;0.87;;
2956;SDS011;1488;51.548;7.222;2022-10-16T07:34:33;0.90;;;0.70;;
2956;SDS011;1488;51.548;7.222;2022-10-16T07:37:00;1.40;;;1.00;;
2956;SDS011;1488;51.548;7.222;2022-10-16T07:39:27;1.90;;;0.90;;
2956;SDS011;1488;51.548;7.222;2022-10-16T07:41:53;2.03;;;0.70;;
2956;SDS011;1488;51.548;7.222;2022-10-16T07:44:20;0.80;;;0.80;;
2956;SDS011;1488;51.548;7.222;2022-10-16T07:46:47;1.90;;;0.77;;
2956;SDS011;1488;51.548;7.222;2022-10-16T07:49:14;1.67;;;0.90;;
2956;SDS011;1488;51.548;7.222;2022-10-16T07:51:42;1.50;;;1.40;;
2956;SDS011;1488;51.548;7.222;2022-10-16T07:54:09;0.80;;;0.70;;
2956;SDS011;1488;51.548;7.222;2022-10-16T07:56:36;0.90;;;0.70;;
2956;SDS011;1488;51.548;7.222;2022-10-16T07:59:03;0.83;;;0.70;;
2956;SDS011;1488;51.548;7.222;2022-10-16T08:01:30;1.20;;;0.83;;
2956;SDS011;1488;51.548;7.222;2022-10-16T08:03:56;3.00;;;0.93;;
2956;SDS011;1488;51.548;7.222;2022-10-16T08:06:23;3.13;;;1.00;;
2956;SDS011;1488;51.548;7.222;2022-10-16T08:08:51;1.20;;;1.00;;
2956;SDS011;1488;51.548;7.222;2022-10-16T08:11:18;0.80;;;0.70;;
2956;SDS011;1488;51.548;7.222;2022-10-16T08:13:46;1.07;;;0.70;;
2956;SDS011;1488;51.548;7.222;2022-10-16T08:16:12;0.90;;;0.80;;
2956;SDS011;1488;51.548;7.222;2022-10-16T08:18:40;1.10;;;0.90;;
2956;SDS011;1488;51.548;7.222;2022-10-16T08:21:08;0.90;;;0.80;;
2956;SDS011;1488;51.548;7.222;2022-10-16T08:23:39;1.00;;;0.70;;
2956;SDS011;1488;51.548;7.222;2022-10-16T08:26:07;1.00;;;0.90;;
2956;SDS011;1488;51.548;7.222;2022-10-16T08:28:35;1.00;;;0.90;;
2956;SDS011;1488;51.548;7.222;2022-10-16T08:31:05;0.97;;;0.70;;
2956;SDS011;1488;51.548;7.222;2022-10-16T08:33:33;0.80;;;0.70;;
2956;SDS011;1488;51.548;7.222;2022-10-16T08:36:01;0.90;;;0.80;;
2956;SDS011;1488;51.548;7.222;2022-10-16T08:38:28;2.20;;;0.90;;
2956;SDS011;1488;51.548;7.222;2022-10-16T08:40:55;0.93;;;0.83;;
2956;SDS011;1488;51.548;7.222;2022-10-16T08:43:35;0.80;;;0.70;;
2956;SDS011;1488;51.548;7.222;2022-10-16T08:46:20;1.10;;;0.90;;
2956;SDS011;1488;51.548;7.222;2022-10-16T08:48:56;1.90;;;0.80;;
2956;SDS011;1488;51.548;7.222;2022-10-16T08:51:25;1.20;;;1.10;;
2956;SDS011;1488;51.548;7.222;2022-10-16T08:53:56;1.63;;;0.97;;
2956;SDS011;1488;51.548;7.222;2022-10-16T08:56:24;1.07;;;0.90;;
2956;SDS011;1488;51.548;7.222;2022-10-16T08:58:53;0.90;;;0.80;;
2956;SDS011;1488;51.548;7.222;2022-10-16T09:01:21;1.00;;;0.90;;
2956;SDS011;1488;51.548;7.222;2022-10-16T09:06:51;0.90;;;0.70;;
2956;SDS011;1488;51.548;7.222;2022-10-16T09:09:29;1.10;;;0.80;;
2956;SDS011;1488;51.548;7.222;2022-10-16T09:12:03;0.80;;;0.70;;
2956;SDS011;1488;51.548;7.222;2022-10-16T09:14:43;1.17;;;0.80;;
2956;SDS011;1488;51.548;7.222;2022-10-16T09:17:24;0.93;;;0.80;;
2956;SDS011;1488;51.548;7.222;2022-10-16T09:20:03;1.10;;;0.90;;
2956;SDS011;1488;51.548;7.222;2022-10-16T09:22:44;2.93;;;1.27;;
2956;SDS011;1488;51.548;7.222;2022-10-16T09:25:12;1.40;;;0.80;;
2956;SDS011;1488;51.548;7.222;2022-10-16T09:27:40;1.10;;;0.83;;
2956;SDS011;1488;51.548;7.222;2022-10-16T09:30:14;1.10;;;0.87;;
2956;SDS011;1488;51.548;7.222;2022-10-16T09:32:43;1.17;;;1.00;;
2956;SDS011;1488;51.548;7.222;2022-10-16T09:35:14;1.00;;;0.90;;
2956;SDS011;1488;51.548;7.222;2022-10-16T09:37:44;1.00;;;0.90;;
2956;SDS011;1488;51.548;7.222;2022-10-16T09:40:13;1.00;;;0.90;;
2956;SDS011;1488;51.548;7.222;2022-10-16T09:42:52;1.33;;;1.20;;
2956;SDS011;1488;51.548;7.222;2022-10-16T09:45:25;1.00;;;0.90;;
2956;SDS011;1488;51.548;7.222;2022-10-16T09:47:52;1.13;;;0.90;;
2956;SDS011;1488;51.548;7.222;2022-10-16T09:50:20;1.00;;;0.80;;
2956;SDS011;1488;51.548;7.222;2022-10-16T09:52:50;1.07;;;0.90;;
2956;SDS011;1488;51.548;7.222;2022-10-16T09:55:18;1.20;;;0.83;;
2956;SDS011;1488;51.548;7.222;2022-10-16T09:57:48;1.10;;;1.00;;
2956;SDS011;1488;51.548;7.222;2022-10-16T13:51:58;1.47;;;0.80;;
2956;SDS011;1488;51.548;7.222;2022-10-16T13:54:26;1.07;;;0.70;;
2956;SDS011;1488;51.548;7.222;2022-10-16T13:56:54;1.20;;;0.90;;
2956;SDS011;1488;51.548;7.222;2022-10-16T13:59:25;0.80;;;0.67;;
2956;SDS011;1488;51.548;7.222;2022-10-16T14:01:53;0.80;;;0.60;;
2956;SDS011;1488;51.548;7.222;2022-10-16T14:04:22;1.53;;;0.70;;
2956;SDS011;1488;51.548;7.222;2022-10-16T14:06:51;1.13;;;0.83;;
2956;SDS011;1488;51.548;7.222;2022-10-16T14:09:22;1.00;;;0.70;;
2956;SDS011;1488;51.548;7.222;2022-10-16T14:11:51;0.80;;;0.60;;
2956;SDS011;1488;51.548;7.222;2022-10-16T14:14:21;0.80;;;0.70;;
2956;SDS011;1488;51.548;7.222;2022-10-16T14:16:49;2.20;;;0.70;;
2956;SDS011;1488;51.548;7.222;2022-10-16T14:19:18;2.40;;;0.70;;
2956;SDS011;1488;51.548;7.222;2022-10-16T14:21:48;1.20;;;0.90;;
2956;SDS011;1488;51.548;7.222;2022-10-16T14:24:24;0.93;;;0.80;;
2956;SDS011;1488;51.548;7.222;2022-10-16T14:26:53;0.80;;;0.70;;
2956;SDS011;1488;51.548;7.222;2022-10-16T14:29:21;1.20;;;1.10;;
2956;SDS011;1488;51.548;7.222;2022-10-16T14:31:56;0.93;;;0.83;;
2956;SDS011;1488;51.548;7.222;2022-10-16T14:34:25;1.00;;;0.90;;
2956;SDS011;1488;51.548;7.222;2022-10-16T14:36:53;0.90;;;0.70;;
2956;SDS011;1488;51.548;7.222;2022-10-16T14:39:22;0.80;;;0.70;;
2956;SDS011;1488;51.548;7.222;2022-10-16T14:41:51;1.20;;;1.07;;
2956;SDS011;1488;51.548;7.222;2022-10-16T14:44:22;0.80;;;0.70;;
2956;SDS011;1488;51.548;7.222;2022-10-16T14:46:54;0.90;;;0.80;;
2956;SDS011;1488;51.548;7.222;2022-10-16T14:49:21;0.97;;;0.80;;
2956;SDS011;1488;51.548;7.222;2022-10-16T14:51:49;1.23;;;0.90;;
2956;SDS011;1488;51.548;7.222;2022-10-16T14:54:17;0.90;;;0.67;;
2956;SDS011;1488;51.548;7.222;2022-10-16T14:56:47;1.00;;;0.70;;
2956;SDS011;1488;51.548;7.222;2022-10-16T14:59:17;1.77;;;0.70;;
2956;SDS011;1488;51.548;7.222;2022-10-16T15:01:48;0.90;;;0.70;;
2956;SDS011;1488;51.548;7.222;2022-10-16T15:04:14;0.90;;;0.70;;
2956;SDS011;1488;51.548;7.222;2022-10-16T15:06:43;1.00;;;0.83;;
2956;SDS011;1488;51.548;7.222;2022-10-16T15:09:10;1.27;;;0.80;;
2956;SDS011;1488;51.548;7.222;2022-10-16T15:11:37;0.80;;;0.60;;
2956;SDS011;1488;51.548;7.222;2022-10-16T15:14:08;0.77;;;0.70;;
2956;SDS011;1488;51.548;7.222;2022-10-16T15:16:36;0.90;;;0.70;;
2956;SDS011;1488;51.548;7.222;2022-10-16T15:19:03;0.90;;;0.80;;
2956;SDS011;1488;51.548;7.222;2022-10-16T15:21:31;1.00;;;0.90;;
2956;SDS011;1488;51.548;7.222;2022-10-16T15:23:59;1.00;;;0.90;;
2956;SDS011;1488;51.548;7.222;2022-10-16T15:26:26;0.90;;;0.80;;
2956;SDS011;1488;51.548;7.222;2022-10-16T15:28:55;1.10;;;0.80;;
2956;SDS011;1488;51.548;7.222;2022-10-16T15:31:23;0.80;;;0.70;;
2956;SDS011;1488;51.548;7.222;2022-10-16T15:33:51;3.27;;;0.97;;
2956;SDS011;1488;51.548;7.222;2022-10-16T15:36:26;0.93;;;0.83;;
2956;SDS011;1488;51.548;7.222;2022-10-16T15:38:55;0.90;;;0.70;;
2956;SDS011;1488;51.548;7.222;2022-10-16T15:41:23;0.90;;;0.70;;
2956;SDS011;1488;51.548;7.222;2022-10-16T15:43:50;0.90;;;0.80;;
2956;SDS011;1488;51.548;7.222;2022-10-16T15:46:18;1.00;;;0.87;;
2956;SDS011;1488;51.548;7.222;2022-10-16T15:48:47;0.90;;;0.80;;
2956;SDS011;1488;51.548;7.222;2022-10-16T15:51:14;0.90;;;0.70;;
2956;SDS011;1488;51.548;7.222;2022-10-16T15:53:42;1.03;;;0.70;;
2956;SDS011;1488;51.548;7.222;2022-10-16T15:56:11;1.37;;;0.90;;
2956;SDS011;1488;51.548;7.222;2022-10-16T15:58:38;1.83;;;0.80;;
2956;SDS011;1488;51.548;7.222;2022-10-16T16:01:05;1.00;;;0.83;;
2956;SDS011;1488;51.548;7.222;2022-10-16T16:03:34;0.80;;;0.60;;
2956;SDS011;1488;51.548;7.222;2022-10-16T16:06:05;2.67;;;0.90;;
2956;SDS011;1488;51.548;7.222;2022-10-16T16:08:33;1.20;;;0.80;;
2956;SDS011;1488;51.548;7.222;2022-10-16T16:11:01;5.87;;;0.90;;
2956;SDS011;1488;51.548;7.222;2022-10-16T16:13:29;0.90;;;0.70;;
2956;SDS011;1488;51.548;7.222;2022-10-16T16:15:56;0.80;;;0.60;;
2956;SDS011;1488;51.548;7.222;2022-10-16T16:18:23;0.90;;;0.80;;
2956;SDS011;1488;51.548;7.222;2022-10-16T16:20:50;2.10;;;0.80;;
2956;SDS011;1488;51.548;7.222;2022-10-16T16:23:19;3.90;;;0.93;;
2956;SDS011;1488;51.548;7.222;2022-10-16T16:26:01;0.93;;;0.70;;
2956;SDS011;1488;51.548;7.222;2022-10-16T16:28:29;1.20;;;0.80;;
2956;SDS011;1488;51.548;7.222;2022-10-16T16:30:56;1.83;;;0.80;;
2956;SDS011;1488;51.548;7.222;2022-10-16T16:33:23;0.90;;;0.70;;
2956;SDS011;1488;51.548;7.222;2022-10-16T16:35:50;1.47;;;0.80;;
2956;SDS011;1488;51.548;7.222;2022-10-16T16:38:23;0.93;;;0.70;;
2956;SDS011;1488;51.548;7.222;2022-10-16T16:40:50;1.77;;;0.80;;
2956;SDS011;1488;51.548;7.222;2022-10-16T16:50:20;1.20;;;0.80;;
2956;SDS011;1488;51.548;7.222;2022-10-16T16:52:47;1.90;;;0.70;;
2956;SDS011;1488;51.548;7.222;2022-10-16T16:55:16;1.73;;;0.80;;
2956;SDS011;1488;51.548;7.222;2022-10-16T16:57:43;0.80;;;0.63;;
2956;SDS011;1488;51.548;7.222;2022-10-16T17:00:10;1.20;;;0.80;;
2956;SDS011;1488;51.548;7.222;2022-10-16T17:02:37;0.80;;;0.70;;
2956;SDS011;1488;51.548;7.222;2022-10-16T17:05:08;1.30;;;1.00;;
2956;SDS011;1488;51.548;7.222;2022-10-16T17:07:35;1.20;;;1.00;;
2956;SDS011;1488;51.548;7.222;2022-10-16T17:10:05;1.30;;;0.70;;
2956;SDS011;1488;51.548;7.222;2022-10-16T17:12:34;0.90;;;0.80;;
2956;SDS011;1488;51.548;7.222;2022-10-16T17:15:00;2.20;;;0.80;;
2956;SDS011;1488;51.548;7.222;2022-10-16T17:17:27;1.00;;;0.80;;
2956;SDS011;1488;51.548;7.222;2022-10-16T17:19:54;2.30;;;0.70;;
2956;SDS011;1488;51.548;7.222;2022-10-16T17:22:21;1.47;;;0.80;;
2956;SDS011;1488;51.548;7.222;2022-10-16T17:24:48;1.77;;;0.87;;
2956;SDS011;1488;51.548;7.222;2022-10-16T17:27:16;1.07;;;0.70;;
2956;SDS011;1488;51.548;7.222;2022-10-16T17:29:45;1.00;;;0.87;;
2956;SDS011;1488;51.548;7.222;2022-10-16T17:32:15;0.90;;;0.73;;
2956;SDS011;1488;51.548;7.222;2022-10-16T17:34:42;0.90;;;0.77;;
2956;SDS011;1488;51.548;7.222;2022-10-16T17:37:09;0.90;;;0.83;;
2956;SDS011;1488;51.548;7.222;2022-10-16T17:39:35;0.80;;;0.70;;
2956;SDS011;1488;51.548;7.222;2022-10-16T17:42:02;1.00;;;0.90;;
2956;SDS011;1488;51.548;7.222;2022-10-16T17:44:29;1.33;;;1.10;;
2956;SDS011;1488;51.548;7.222;2022-10-16T17:46:57;0.90;;;0.80;;
2956;SDS011;1488;51.548;7.222;2022-10-16T17:49:24;2.50;;;1.13;;
2956;SDS011;1488;51.548;7.222;2022-10-16T17:51:52;1.00;;;0.83;;
2956;SDS011;1488;51.548;7.222;2022-10-16T17:54:20;2.70;;;0.70;;
2956;SDS011;1488;51.548;7.222;2022-10-16T17:56:47;1.40;;;0.90;;
2956;SDS011;1488;51.548;7.222;2022-10-16T17:59:14;2.27;;;1.00;;
2956;SDS011;1488;51.548;7.222;2022-10-16T18:01:40;1.00;;;0.90;;
2956;SDS011;1488;51.548;7.222;2022-10-16T18:04:12;0.80;;;0.80;;
2956;SDS011;1488;51.548;7.222;2022-10-16T18:06:41;1.73;;;0.80;;
2956;SDS011;1488;51.548;7.222;2022-10-16T18:09:09;1.00;;;0.90;;
2956;SDS011;1488;51.548;7.222;2022-10-16T18:11:39;1.30;;;1.00;;
2956;SDS011;1488;51.548;7.222;2022-10-16T18:14:06;0.80;;;0.80;;
2956;SDS011;1488;51.548;7.222;2022-10-16T18:16:33;2.50;;;1.20;;
2956;SDS011;1488;51.548;7.222;2022-10-16T18:19:01;2.17;;;1.53;;
2956;SDS011;1488;51.548;7.222;2022-10-16T18:21:29;0.90;;;0.80;;
2956;SDS011;1488;51.548;7.222;2022-10-16T18:23:57;1.23;;;1.10;;
2956;SDS011;1488;51.548;7.222;2022-10-16T18:26:25;1.67;;;0.90;;
2956;SDS011;1488;51.548;7.222;2022-10-16T18:28:53;2.70;;;0.90;;
2956;SDS011;1488;51.548;7.222;2022-10-16T18:31:21;1.27;;;1.00;;
2956;SDS011;1488;51.548;7.222;2022-10-16T18:33:50;1.10;;;1.00;;
2956;SDS011;1488;51.548;7.222;2022-10-16T18:36:18;1.90;;;1.00;;
2956;SDS011;1488;51.548;7.222;2022-10-16T18:38:48;1.40;;;0.90;;
2956;SDS011;1488;51.548;7.222;2022-10-16T18:41:16;1.47;;;1.10;;
2956;SDS011;1488;51.548;7.222;2022-10-16T18:43:43;0.87;;;0.83;;
2956;SDS011;1488;51.548;7.222;2022-10-16T18:46:10;1.23;;;1.13;;
2956;SDS011;1488;51.548;7.222;2022-10-16T18:48:38;1.20;;;1.10;;
2956;SDS011;1488;51.548;7.222;2022-10-16T18:51:06;1.93;;;1.27;;
2956;SDS011;1488;51.548;7.222;2022-10-16T18:53:34;2.40;;;1.23;;
2956;SDS011;1488;51.548;7.222;2022-10-16T18:56:03;1.10;;;1.00;;
2956;SDS011;1488;51.548;7.222;2022-10-16T18:58:30;2.43;;;2.23;;
2956;SDS011;1488;51.548;7.222;2022-10-16T19:01:01;15.77;;;14.37;;
2956;SDS011;1488;51.548;7.222;2022-10-16T19:03:29;23.93;;;21.53;;
2956;SDS011;1488;51.548;7.222;2022-10-16T19:05:58;42.63;;;38.60;;
2956;SDS011;1488;51.548;7.222;2022-10-16T19:08:25;39.87;;;35.80;;
2956;SDS011;1488;51.548;7.222;2022-10-16T19:10:53;43.03;;;38.90;;
2956;SDS011;1488;51.548;7.222;2022-10-16T19:13:22;41.50;;;37.43;;
2956;SDS011;1488;51.548;7.222;2022-10-16T19:15:48;46.73;;;42.27;;
2956;SDS011;1488;51.548;7.222;2022-10-16T19:18:15;41.80;;;37.60;;
2956;SDS011;1488;51.548;7.222;2022-10-16T19:32:59;36.93;;;33.27;;
2956;SDS011;1488;51.548;7.222;2022-10-16T19:35:26;37.13;;;33.53;;
2956;SDS011;1488;51.548;7.222;2022-10-16T19:37:52;35.30;;;31.60;;
2956;SDS011;1488;51.548;7.222;2022-10-16T19:40:19;33.87;;;30.67;;